RJSH(METAR)
05/26 20:00
METAR RJSH 261100Z 31001KT 9999 FEW030 14/08 Q1012 RMK 1CU030 A2988=
戻る
トップページへ戻る
IMOC Co,.Ltd.